Time;durP1;ratioP1;P1;durP2;ratioP2;P2;SDS_P1;SDS_P2;PMS_P1;PMS_P2;Temp;Humidity;BMP_temperature;BMP_pressure;BME280_temperature;BME280_humidity;BME280_pressure;Samples;Min_cycle;Max_cycle;Signal;HPM_P1;HPM_P2
2023/08/02 00:00:36;;;;;;;0.40;0.40;;;13.50;99.90;;;;;;5085750;28;20567;-73
2023/08/02 00:03:01;;;;;;;0.40;0.40;;;13.50;99.90;;;;;;5074635;28;20291;-73
2023/08/02 00:05:28;;;;;;;0.40;0.40;;;13.60;99.90;;;;;;5095946;28;20311;-73
2023/08/02 00:07:54;;;;;;;0.40;0.40;;;13.60;99.90;;;;;;5096006;28;20192;-73
2023/08/02 00:10:19;;;;;;;0.32;0.32;;;13.60;99.90;;;;;;5095896;28;20578;-72
2023/08/02 00:12:45;;;;;;;0.40;0.40;;;13.60;99.90;;;;;;5095436;28;20207;-73
2023/08/02 00:15:11;;;;;;;0.40;0.40;;;13.60;99.90;;;;;;5077504;28;20200;-73
2023/08/02 00:17:37;;;;;;;0.40;0.40;;;13.70;99.90;;;;;;5095339;28;20212;-73
2023/08/02 00:20:04;;;;;;;0.40;0.40;;;13.70;99.90;;;;;;5095668;28;20254;-73
2023/08/02 00:22:29;;;;;;;0.93;0.80;;;13.80;99.90;;;;;;5095389;28;20194;-73
2023/08/02 00:24:55;;;;;;;15.32;0.80;;;13.80;99.90;;;;;;5095468;28;20213;-73
2023/08/02 00:27:21;;;;;;;0.40;0.40;;;13.80;99.90;;;;;;5095131;28;20200;-73
2023/08/02 00:29:46;;;;;;;0.40;0.40;;;13.70;99.90;;;;;;5095382;28;20197;-73
2023/08/02 00:32:12;;;;;;;0.50;0.50;;;13.70;99.90;;;;;;5077260;28;20193;-73
2023/08/02 00:34:38;;;;;;;0.40;0.40;;;13.70;99.90;;;;;;5095065;28;20192;-74
2023/08/02 00:37:04;;;;;;;0.40;0.40;;;13.80;99.90;;;;;;5076665;28;20199;-74
2023/08/02 00:39:29;;;;;;;0.50;0.50;;;13.70;99.90;;;;;;5093910;28;20247;-73
2023/08/02 00:41:55;;;;;;;0.40;0.40;;;13.70;99.90;;;;;;5094436;28;20188;-73
2023/08/02 00:44:21;;;;;;;0.40;0.40;;;13.70;99.90;;;;;;5094870;28;20245;-73
2023/08/02 00:46:47;;;;;;;0.30;0.30;;;13.60;99.90;;;;;;5095179;28;20698;-70
2023/08/02 00:49:13;;;;;;;0.50;0.50;;;13.60;99.90;;;;;;5095140;28;20283;-70
2023/08/02 00:51:38;;;;;;;0.45;0.45;;;13.60;99.90;;;;;;5094640;28;20227;-70
2023/08/02 00:54:05;;;;;;;0.40;0.40;;;13.50;99.90;;;;;;5095036;28;20188;-70
2023/08/02 00:56:31;;;;;;;0.32;0.32;;;13.60;99.90;;;;;;5076446;28;20215;-70
2023/08/02 00:58:57;;;;;;;1.00;0.60;;;13.50;99.90;;;;;;5094985;28;20267;-70
2023/08/02 01:01:24;;;;;;;0.50;0.50;;;13.50;99.90;;;;;;5094872;28;20254;-69
2023/08/02 01:03:51;;;;;;;0.50;0.50;;;13.50;99.90;;;;;;5110442;22;20245;-73
2023/08/02 01:06:28;;;;;;;0.60;0.60;;;13.40;99.90;;;;;;5082307;28;20200;-72
2023/08/02 01:09:06;;;;;;;0.57;0.57;;;13.40;99.90;;;;;;5073950;28;20279;-72
2023/08/02 01:11:37;;;;;;;0.82;0.82;;;13.30;99.90;;;;;;5076049;28;20192;-71
2023/08/02 01:14:06;;;;;;;0.35;0.35;;;13.40;99.90;;;;;;5094670;28;20216;-71
2023/08/02 01:16:33;;;;;;;0.47;0.47;;;13.30;99.90;;;;;;5094184;28;20184;-71
2023/08/02 01:19:00;;;;;;;14.25;1.42;;;13.30;99.90;;;;;;5094145;28;20329;-71
2023/08/02 01:21:26;;;;;;;0.57;0.57;;;13.20;99.90;;;;;;5094140;28;20199;-71
2023/08/02 01:23:52;;;;;;;0.40;0.40;;;13.20;99.90;;;;;;5093678;28;20192;-72
2023/08/02 01:26:20;;;;;;;0.40;0.40;;;13.10;99.90;;;;;;5093951;28;20184;-72
2023/08/02 01:28:51;;;;;;;0.50;0.50;;;13.20;99.90;;;;;;5094137;28;20191;-72
2023/08/02 01:31:17;;;;;;;0.98;0.88;;;13.30;99.90;;;;;;5093917;28;20685;-72
2023/08/02 01:33:48;;;;;;;0.40;0.40;;;13.30;99.90;;;;;;5093425;28;20275;-72
2023/08/02 01:36:14;;;;;;;0.40;0.40;;;13.30;99.90;;;;;;5093973;28;20257;-72
2023/08/02 01:38:40;;;;;;;0.77;0.73;;;13.30;99.90;;;;;;5093948;28;20606;-72
2023/08/02 01:41:05;;;;;;;0.60;0.60;;;13.30;99.90;;;;;;5093814;28;20188;-72
2023/08/02 01:43:31;;;;;;;0.40;0.40;;;13.30;99.90;;;;;;5093387;28;20202;-72
2023/08/02 01:45:57;;;;;;;0.57;0.57;;;13.30;99.90;;;;;;5093670;28;20192;-72
2023/08/02 01:48:25;;;;;;;0.50;0.50;;;13.20;99.90;;;;;;5093494;28;20188;-72
2023/08/02 01:50:51;;;;;;;0.40;0.40;;;13.30;99.90;;;;;;5093772;28;20196;-72
2023/08/02 01:53:17;;;;;;;0.40;0.40;;;13.20;99.90;;;;;;5093796;28;20618;-72
2023/08/02 01:55:43;;;;;;;7.97;1.40;;;13.20;99.90;;;;;;5093302;28;20234;-71
2023/08/02 01:58:09;;;;;;;0.68;0.68;;;13.30;99.90;;;;;;5093533;28;20235;-72
2023/08/02 02:00:35;;;;;;;0.60;0.60;;;13.30;99.90;;;;;;5093173;28;20220;-72
2023/08/02 02:03:00;;;;;;;0.45;0.45;;;13.30;99.90;;;;;;5091805;28;20208;-72
2023/08/02 02:05:26;;;;;;;0.60;0.60;;;13.40;99.90;;;;;;5076352;28;20204;-72
2023/08/02 02:07:52;;;;;;;0.40;0.40;;;13.30;99.90;;;;;;5093498;28;20188;-72
2023/08/02 02:10:18;;;;;;;0.40;0.40;;;13.30;99.90;;;;;;5079637;28;20212;-72
2023/08/02 02:12:43;;;;;;;0.32;0.32;;;13.40;99.90;;;;;;5073156;28;20228;-72
2023/08/02 02:15:09;;;;;;;0.40;0.40;;;13.40;99.90;;;;;;5072971;28;20220;-72
2023/08/02 02:17:35;;;;;;;0.65;0.65;;;13.40;99.90;;;;;;5055267;28;20208;-73
2023/08/02 02:20:01;;;;;;;0.50;0.50;;;13.50;99.90;;;;;;5072792;28;20196;-72
2023/08/02 02:22:26;;;;;;;0.50;0.50;;;13.40;99.90;;;;;;5054721;28;20197;-71
2023/08/02 02:24:52;;;;;;;0.60;0.60;;;13.50;99.90;;;;;;5072371;28;20211;-71
2023/08/02 02:27:18;;;;;;;1.15;1.05;;;13.40;99.90;;;;;;5072702;28;20200;-71
2023/08/02 02:29:43;;;;;;;0.50;0.50;;;13.50;99.90;;;;;;5054367;28;20208;-71
2023/08/02 02:32:09;;;;;;;0.40;0.40;;;13.50;99.90;;;;;;5072693;28;20238;-72
2023/08/02 02:34:35;;;;;;;0.40;0.40;;;13.50;99.90;;;;;;5072104;28;20207;-71
2023/08/02 02:37:01;;;;;;;0.50;0.50;;;13.50;99.90;;;;;;5054593;28;20213;-71
2023/08/02 02:39:26;;;;;;;0.45;0.45;;;13.50;99.90;;;;;;5054157;28;20197;-72
2023/08/02 02:41:52;;;;;;;0.40;0.40;;;13.50;99.90;;;;;;5072797;28;20192;-72
2023/08/02 02:44:18;;;;;;;0.40;0.40;;;13.50;99.90;;;;;;5072495;28;20192;-72
2023/08/02 02:46:44;;;;;;;0.50;0.50;;;13.50;99.90;;;;;;5072616;28;20192;-74
2023/08/02 02:49:09;;;;;;;0.50;0.50;;;13.60;99.90;;;;;;5072021;28;20196;-74
2023/08/02 02:51:35;;;;;;;0.68;0.65;;;13.50;99.90;;;;;;5072338;28;20189;-73
2023/08/02 02:54:01;;;;;;;0.40;0.40;;;13.50;99.90;;;;;;5054448;28;20201;-72
2023/08/02 02:56:26;;;;;;;0.52;0.52;;;13.50;99.90;;;;;;5071442;28;20203;-73
2023/08/02 02:58:52;;;;;;;0.50;0.50;;;13.50;99.90;;;;;;5071001;28;20686;-73
2023/08/02 03:01:18;;;;;;;0.40;0.40;;;13.50;99.90;;;;;;5071028;28;20539;-73
2023/08/02 03:03:44;;;;;;;0.50;0.50;;;13.50;99.90;;;;;;5080430;28;20220;-73
2023/08/02 03:06:09;;;;;;;0.40;0.40;;;13.50;99.90;;;;;;5085908;28;20200;-73
2023/08/02 03:08:35;;;;;;;0.50;0.50;;;13.50;99.90;;;;;;5076456;28;20215;-72
2023/08/02 03:11:01;;;;;;;0.43;0.43;;;13.50;99.90;;;;;;5076597;28;20674;-71
2023/08/02 03:13:27;;;;;;;0.40;0.40;;;13.50;99.90;;;;;;5076199;28;20200;-71
2023/08/02 03:15:53;;;;;;;0.40;0.40;;;13.50;99.90;;;;;;5058601;28;20196;-73
2023/08/02 03:18:18;;;;;;;0.40;0.40;;;13.50;99.90;;;;;;5058325;28;20216;-73
2023/08/02 03:20:44;;;;;;;0.98;0.93;;;13.50;99.90;;;;;;5058177;28;20220;-73
2023/08/02 03:23:10;;;;;;;0.40;0.40;;;13.60;99.90;;;;;;5076359;28;20192;-72
2023/08/02 03:25:36;;;;;;;0.45;0.45;;;13.60;99.90;;;;;;5058149;28;20221;-73
2023/08/02 03:28:02;;;;;;;0.50;0.50;;;13.60;99.90;;;;;;5075917;28;20232;-73
2023/08/02 03:30:27;;;;;;;0.47;0.47;;;13.60;99.90;;;;;;5057669;28;20278;-73
2023/08/02 03:32:54;;;;;;;0.68;0.68;;;13.60;99.90;;;;;;5075674;28;20193;-73
2023/08/02 03:35:20;;;;;;;0.40;0.40;;;13.60;99.90;;;;;;5075123;28;20280;-73
2023/08/02 03:37:45;;;;;;;0.40;0.40;;;13.60;99.90;;;;;;5075505;28;20292;-73
2023/08/02 03:40:12;;;;;;;0.30;0.30;;;13.70;99.90;;;;;;5075149;28;20200;-73
2023/08/02 03:42:37;;;;;;;0.57;0.57;;;13.60;99.90;;;;;;5075290;28;20193;-72
2023/08/02 03:45:03;;;;;;;0.50;0.50;;;13.60;99.90;;;;;;5075473;28;20185;-73
2023/08/02 03:47:29;;;;;;;0.70;0.70;;;13.60;99.90;;;;;;5074920;28;20209;-73
2023/08/02 03:49:55;;;;;;;0.47;0.47;;;13.60;99.90;;;;;;5080507;28;20566;-73
2023/08/02 03:52:21;;;;;;;0.40;0.40;;;13.60;99.90;;;;;;5076919;28;20200;-72
2023/08/02 03:54:47;;;;;;;0.50;0.50;;;13.60;99.90;;;;;;5059372;28;20212;-72
2023/08/02 03:57:13;;;;;;;0.40;0.40;;;13.60;99.90;;;;;;5075983;28;20203;-72
2023/08/02 03:59:39;;;;;;;0.40;0.40;;;13.60;99.90;;;;;;5075709;28;20554;-72
2023/08/02 04:02:04;;;;;;;0.40;0.40;;;13.60;99.90;;;;;;5075540;28;20205;-72
2023/08/02 04:04:30;;;;;;;0.30;0.30;;;13.70;99.90;;;;;;5075075;28;20647;-72
2023/08/02 04:06:56;;;;;;;1.25;1.15;;;13.70;99.90;;;;;;5058714;28;20243;-73
2023/08/02 04:09:22;;;;;;;0.40;0.40;;;13.70;99.90;;;;;;5055261;28;20197;-71
2023/08/02 04:11:47;;;;;;;0.50;0.50;;;13.70;99.90;;;;;;5055524;28;20247;-72
2023/08/02 04:14:13;;;;;;;0.50;0.50;;;13.70;99.90;;;;;;5055484;28;20204;-72
2023/08/02 04:16:39;;;;;;;0.68;0.68;;;13.70;99.90;;;;;;5054924;28;20268;-72
2023/08/02 04:19:04;;;;;;;0.40;0.40;;;13.70;99.90;;;;;;5054668;28;20220;-72
2023/08/02 04:21:30;;;;;;;0.55;0.55;;;13.70;99.90;;;;;;5055009;28;20947;-72
2023/08/02 04:23:56;;;;;;;0.40;0.40;;;13.70;99.90;;;;;;5053801;28;20292;-72
2023/08/02 04:26:21;;;;;;;0.40;0.40;;;13.70;99.90;;;;;;5054890;28;20190;-72
2023/08/02 04:28:47;;;;;;;0.73;0.60;;;13.70;99.90;;;;;;5055591;28;20197;-72
2023/08/02 04:31:14;;;;;;;0.40;0.40;;;13.70;99.90;;;;;;5054843;28;20212;-72
2023/08/02 04:33:40;;;;;;;0.55;0.55;;;13.70;99.90;;;;;;5060625;28;20258;-72
2023/08/02 04:36:05;;;;;;;0.40;0.40;;;13.60;99.90;;;;;;5075131;28;20193;-70
2023/08/02 04:38:31;;;;;;;1.02;0.70;;;13.60;99.90;;;;;;5074737;28;20238;-69
2023/08/02 04:40:57;;;;;;;0.40;0.40;;;13.60;99.90;;;;;;5073300;28;20215;-67
2023/08/02 04:43:23;;;;;;;0.60;0.60;;;13.50;99.90;;;;;;5074410;28;20270;-68
2023/08/02 04:45:49;;;;;;;0.80;0.60;;;13.60;99.90;;;;;;5074650;28;20623;-68
2023/08/02 04:48:15;;;;;;;0.38;0.38;;;13.60;99.90;;;;;;5074153;28;20196;-69
2023/08/02 04:50:40;;;;;;;0.35;0.35;;;13.60;99.90;;;;;;5069786;28;20698;-68
2023/08/02 04:53:06;;;;;;;0.47;0.47;;;13.60;99.90;;;;;;5072271;28;20232;-68
2023/08/02 04:55:44;;;;;;;0.50;0.50;;;13.60;99.90;;;;;;5072718;28;20185;-69
2023/08/02 04:58:10;;;;;;;0.60;0.60;;;13.60;99.90;;;;;;5072935;28;20228;-71
2023/08/02 05:00:36;;;;;;;0.50;0.50;;;13.50;99.90;;;;;;5055439;28;20193;-70
2023/08/02 05:03:01;;;;;;;0.40;0.40;;;13.60;99.90;;;;;;5073451;28;20295;-69
2023/08/02 05:05:27;;;;;;;0.70;0.70;;;13.60;99.90;;;;;;5073458;28;20200;-69
2023/08/02 05:07:53;;;;;;;0.40;0.40;;;13.60;99.90;;;;;;5073578;28;20196;-71
2023/08/02 05:10:18;;;;;;;0.40;0.40;;;13.60;99.90;;;;;;5073453;28;20674;-70
2023/08/02 05:12:44;;;;;;;0.50;0.50;;;13.60;99.90;;;;;;5073416;28;20196;-72
2023/08/02 05:15:10;;;;;;;0.63;0.63;;;13.60;99.90;;;;;;5073275;28;20291;-69
2023/08/02 05:17:36;;;;;;;0.43;0.43;;;13.60;99.90;;;;;;5071367;28;20212;-70
2023/08/02 05:20:02;;;;;;;0.75;0.65;;;13.60;99.90;;;;;;5073411;28;20208;-69
2023/08/02 05:22:27;;;;;;;0.55;0.55;;;13.60;99.90;;;;;;5071593;28;20274;-70
2023/08/02 05:24:53;;;;;;;0.43;0.43;;;13.60;99.90;;;;;;5072926;28;20197;-68
2023/08/02 05:27:19;;;;;;;0.50;0.50;;;13.60;99.90;;;;;;5072305;28;20188;-71
2023/08/02 05:29:45;;;;;;;0.40;0.40;;;13.60;99.90;;;;;;5071402;28;20207;-69
2023/08/02 05:32:11;;;;;;;0.45;0.45;;;13.60;99.90;;;;;;5071462;28;20488;-70
2023/08/02 05:34:37;;;;;;;0.50;0.50;;;13.70;99.90;;;;;;5072660;28;20207;-70
2023/08/02 05:37:03;;;;;;;0.40;0.40;;;13.70;99.90;;;;;;5072057;28;20208;-69
2023/08/02 05:39:28;;;;;;;0.40;0.40;;;13.70;99.90;;;;;;5072312;28;20271;-69
2023/08/02 05:41:54;;;;;;;0.40;0.40;;;13.70;99.90;;;;;;5072525;28;20941;-67
2023/08/02 05:44:20;;;;;;;0.32;0.32;;;13.70;99.90;;;;;;5088213;28;20203;-68
2023/08/02 05:46:46;;;;;;;0.40;0.40;;;13.70;99.90;;;;;;5088462;28;20189;-68
2023/08/02 05:49:12;;;;;;;0.40;0.40;;;13.70;99.90;;;;;;5073137;28;20644;-68
2023/08/02 05:51:37;;;;;;;0.50;0.50;;;13.70;99.90;;;;;;5073079;28;21657;-67
2023/08/02 05:54:03;;;;;;;0.40;0.40;;;13.70;99.90;;;;;;5073123;28;20258;-69
2023/08/02 05:56:29;;;;;;;0.70;0.70;;;13.70;99.90;;;;;;5072991;28;20185;-68
2023/08/02 05:58:54;;;;;;;0.40;0.40;;;13.70;99.90;;;;;;5073331;28;20675;-68
2023/08/02 06:01:20;;;;;;;0.98;0.70;;;13.80;99.90;;;;;;5073061;28;20193;-70
2023/08/02 06:03:46;;;;;;;0.30;0.30;;;13.80;99.90;;;;;;5068374;28;20235;-68
2023/08/02 06:06:12;;;;;;;0.52;0.52;;;13.80;99.90;;;;;;5072929;28;20197;-69
2023/08/02 06:08:37;;;;;;;0.45;0.45;;;13.80;99.90;;;;;;5055642;28;20204;-68
2023/08/02 06:11:03;;;;;;;0.50;0.50;;;13.80;99.90;;;;;;5073445;28;20192;-68
2023/08/02 06:13:30;;;;;;;0.80;0.80;;;13.90;99.90;;;;;;5072284;28;20196;-68
2023/08/02 06:15:55;;;;;;;0.50;0.50;;;13.90;99.90;;;;;;5073340;28;20628;-68
2023/08/02 06:18:21;;;;;;;0.50;0.50;;;13.90;99.90;;;;;;5072843;28;20239;-70
2023/08/02 06:20:47;;;;;;;0.40;0.40;;;13.90;99.90;;;;;;5072944;28;20250;-68
2023/08/02 06:23:12;;;;;;;0.50;0.50;;;13.90;99.90;;;;;;5072961;28;20185;-69
2023/08/02 06:25:38;;;;;;;0.40;0.40;;;14.00;99.90;;;;;;5072571;28;20197;-68
2023/08/02 06:28:04;;;;;;;0.60;0.60;;;14.00;99.90;;;;;;5072608;28;20280;-68
2023/08/02 06:30:30;;;;;;;0.40;0.40;;;14.10;99.90;;;;;;5072639;28;20200;-68
2023/08/02 06:32:56;;;;;;;0.77;0.77;;;14.10;99.90;;;;;;5073145;28;20197;-69
2023/08/02 06:35:21;;;;;;;0.40;0.40;;;14.10;99.90;;;;;;5054175;28;20207;-69
2023/08/02 06:37:47;;;;;;;0.40;0.40;;;14.20;99.90;;;;;;5072031;28;20239;-69
2023/08/02 06:40:13;;;;;;;0.45;0.45;;;14.20;99.90;;;;;;5055241;28;20257;-69
2023/08/02 06:42:39;;;;;;;5.40;1.38;;;14.30;99.90;;;;;;5072545;28;20201;-68
2023/08/02 06:45:05;;;;;;;0.52;0.50;;;14.30;99.90;;;;;;5054916;28;20675;-69
2023/08/02 06:47:31;;;;;;;0.40;0.40;;;14.40;99.90;;;;;;5072608;28;20193;-68
2023/08/02 06:49:56;;;;;;;0.40;0.40;;;14.40;99.90;;;;;;5072426;28;20655;-69
2023/08/02 06:52:22;;;;;;;0.40;0.40;;;14.40;99.90;;;;;;5070420;28;20200;-68
2023/08/02 06:54:52;;;;;;;0.63;0.50;;;14.50;99.90;;;;;;5072700;28;20235;-68
2023/08/02 06:57:22;;;;;;;0.30;0.30;;;14.50;99.90;;;;;;5054429;28;20201;-70
2023/08/02 06:59:49;;;;;;;0.47;0.47;;;14.60;99.90;;;;;;5072735;28;20262;-67
2023/08/02 07:02:15;;;;;;;0.43;0.43;;;14.60;99.90;;;;;;5054496;28;20671;-67
2023/08/02 07:04:41;;;;;;;0.30;0.30;;;14.60;99.90;;;;;;5072241;28;20264;-68
2023/08/02 07:07:06;;;;;;;0.40;0.40;;;14.70;99.90;;;;;;5071059;28;20250;-67
2023/08/02 07:09:32;;;;;;;0.50;0.50;;;14.70;99.90;;;;;;5072331;28;20197;-67
2023/08/02 07:11:59;;;;;;;0.40;0.40;;;14.80;99.90;;;;;;5054653;28;20199;-68
2023/08/02 07:14:24;;;;;;;0.32;0.32;;;14.80;99.90;;;;;;5072542;28;20200;-67
2023/08/02 07:16:50;;;;;;;0.63;0.63;;;14.80;99.90;;;;;;5072465;28;20193;-68
2023/08/02 07:19:16;;;;;;;3.63;1.23;;;14.90;99.90;;;;;;5072441;28;20268;-68
2023/08/02 07:21:41;;;;;;;0.60;0.60;;;14.90;99.90;;;;;;5072179;28;20224;-68
2023/08/02 07:24:07;;;;;;;0.40;0.40;;;15.00;99.90;;;;;;5052533;28;20722;-68
2023/08/02 07:26:33;;;;;;;0.40;0.40;;;15.00;99.90;;;;;;5052258;28;20243;-68
2023/08/02 07:28:58;;;;;;;0.40;0.40;;;15.00;99.90;;;;;;5052253;28;20193;-68
2023/08/02 07:31:24;;;;;;;0.55;0.55;;;15.00;99.90;;;;;;5052326;28;20193;-68
2023/08/02 07:33:50;;;;;;;0.30;0.30;;;15.10;99.90;;;;;;5072460;28;20193;-69
2023/08/02 07:36:18;;;;;;;0.32;0.32;;;15.10;99.90;;;;;;5054181;28;20283;-70
2023/08/02 07:38:44;;;;;;;0.43;0.43;;;15.10;99.90;;;;;;5072343;28;20205;-69
2023/08/02 07:41:10;;;;;;;0.45;0.45;;;15.10;99.90;;;;;;5072293;28;20197;-68
2023/08/02 07:43:36;;;;;;;0.40;0.40;;;15.20;99.90;;;;;;5072015;28;20199;-68
2023/08/02 07:46:02;;;;;;;0.38;0.38;;;15.20;99.90;;;;;;5072042;28;20217;-68
2023/08/02 07:48:28;;;;;;;0.30;0.30;;;15.20;99.90;;;;;;5071931;28;20211;-67
2023/08/02 07:50:54;;;;;;;0.55;0.55;;;15.20;99.90;;;;;;5057820;28;20284;-69
2023/08/02 07:53:19;;;;;;;0.43;0.40;;;15.20;99.90;;;;;;5057687;28;20287;-69
2023/08/02 07:55:45;;;;;;;0.43;0.43;;;15.20;99.90;;;;;;5075569;28;20197;-67
2023/08/02 07:58:11;;;;;;;0.52;0.52;;;15.20;99.90;;;;;;5057789;28;20212;-68
2023/08/02 08:00:37;;;;;;;0.52;0.52;;;15.30;99.90;;;;;;5075330;28;20686;-68
2023/08/02 08:03:05;;;;;;;0.40;0.40;;;15.30;99.90;;;;;;5075360;28;20240;-68
2023/08/02 08:05:31;;;;;;;0.40;0.40;;;15.40;99.90;;;;;;5076776;28;20238;-68
2023/08/02 08:07:57;;;;;;;0.30;0.30;;;15.40;99.90;;;;;;5096077;28;20235;-73
2023/08/02 08:10:26;;;;;;;0.40;0.40;;;15.40;99.90;;;;;;5095888;28;20196;-73
2023/08/02 08:12:52;;;;;;;0.40;0.40;;;15.40;99.90;;;;;;5096301;28;20255;-71
2023/08/02 08:15:17;;;;;;;0.30;0.30;;;15.40;99.90;;;;;;5096461;28;20234;-72
2023/08/02 08:17:43;;;;;;;0.95;0.95;;;15.30;99.90;;;;;;5095548;28;20215;-72
2023/08/02 08:20:10;;;;;;;0.52;0.50;;;15.50;99.90;;;;;;5096313;28;20196;-72
2023/08/02 08:22:35;;;;;;;0.38;0.38;;;15.50;99.90;;;;;;5077664;28;20202;-72
2023/08/02 08:25:03;;;;;;;0.45;0.45;;;15.60;99.90;;;;;;5096369;28;20192;-72
2023/08/02 08:27:35;;;;;;;0.30;0.30;;;15.70;99.90;;;;;;5094851;28;20278;-72
2023/08/02 08:30:01;;;;;;;0.68;0.60;;;15.70;99.90;;;;;;5075978;28;20199;-72
2023/08/02 08:32:27;;;;;;;0.50;0.50;;;15.80;99.90;;;;;;5075917;28;20247;-72
2023/08/02 08:34:54;;;;;;;0.40;0.40;;;15.90;99.90;;;;;;5075984;28;20200;-72
2023/08/02 08:37:20;;;;;;;0.75;0.38;;;15.90;99.90;;;;;;5075157;28;20197;-73
2023/08/02 08:39:50;;;;;;;0.40;0.40;;;15.90;99.90;;;;;;5058729;28;20207;-73
2023/08/02 08:42:16;;;;;;;0.40;0.40;;;16.00;99.90;;;;;;5083242;28;20227;-72
2023/08/02 08:44:42;;;;;;;0.30;0.30;;;16.00;99.90;;;;;;5096033;28;20208;-72
2023/08/02 08:47:18;;;;;;;0.65;0.65;;;16.00;99.90;;;;;;5077226;28;20272;-73
2023/08/02 08:49:47;;;;;;;0.50;0.50;;;16.00;99.90;;;;;;5096465;28;20200;-72
2023/08/02 08:52:15;;;;;;;0.70;0.50;;;16.10;99.90;;;;;;5095689;28;20200;-72
2023/08/02 08:54:44;;;;;;;0.30;0.30;;;16.20;99.90;;;;;;5096224;28;20235;-73
2023/08/02 08:57:12;;;;;;;1.85;0.98;;;16.30;99.90;;;;;;5095158;28;20195;-72
2023/08/02 08:59:39;;;;;;;0.85;0.77;;;16.30;99.90;;;;;;5076819;28;20204;-72
2023/08/02 09:02:17;;;;;;;0.40;0.40;;;16.40;99.90;;;;;;5094248;28;20192;-73
2023/08/02 09:04:43;;;;;;;0.30;0.30;;;16.40;99.90;;;;;;5080876;28;20277;-73
2023/08/02 09:07:12;;;;;;;0.30;0.30;;;16.50;99.90;;;;;;5075702;28;20234;-73
2023/08/02 09:09:37;;;;;;;0.47;0.47;;;16.50;99.90;;;;;;5057536;28;20200;-72
2023/08/02 09:12:04;;;;;;;0.30;0.30;;;16.60;99.90;;;;;;5057054;28;20758;-72
2023/08/02 09:14:30;;;;;;;0.43;0.43;;;16.70;99.90;;;;;;5075425;28;20609;-72
2023/08/02 09:17:00;;;;;;;0.30;0.30;;;16.80;99.90;;;;;;5073355;28;20200;-72
2023/08/02 09:19:34;;;;;;;0.45;0.45;;;16.80;99.90;;;;;;5056014;28;20243;-72
2023/08/02 09:22:14;;;;;;;0.50;0.50;;;16.90;99.90;;;;;;5074006;28;20192;-72
2023/08/02 09:24:42;;;;;;;0.30;0.30;;;17.00;99.90;;;;;;5073371;28;20197;-72
2023/08/02 09:27:17;;;;;;;0.30;0.30;;;17.00;99.90;;;;;;5073929;28;20193;-72
2023/08/02 09:29:45;;;;;;;0.70;0.70;;;17.10;99.90;;;;;;5077854;28;20192;-74
2023/08/02 09:32:14;;;;;;;2.03;1.27;;;17.10;99.90;;;;;;5076881;28;20192;-74
2023/08/02 09:34:57;;;;;;;0.30;0.30;;;17.10;99.90;;;;;;5058670;28;20344;-74
2023/08/02 09:37:36;;;;;;;1.02;0.77;;;17.10;99.90;;;;;;5076879;28;20207;-72
2023/08/02 09:40:04;;;;;;;0.30;0.30;;;17.10;99.90;;;;;;5075293;28;20230;-77
2023/08/02 09:42:30;;;;;;;0.40;0.40;;;17.10;99.90;;;;;;5077478;28;20184;-75
2023/08/02 09:45:03;;;;;;;0.20;0.20;;;17.10;99.90;;;;;;5079086;28;20189;-74
2023/08/02 09:47:29;;;;;;;0.30;0.30;;;17.00;99.90;;;;;;5078610;28;20196;-75
2023/08/02 09:50:21;;;;;;;0.43;0.43;;;17.10;99.90;;;;;;5079118;28;20196;-75
2023/08/02 09:52:47;;;;;;;0.30;0.30;;;17.30;99.90;;;;;;5075537;28;20209;-75
2023/08/02 09:55:13;;;;;;;0.25;0.25;;;17.40;99.90;;;;;;5078261;28;20663;-75
2023/08/02 09:57:44;;;;;;;0.10;0.10;;;17.40;99.90;;;;;;5078301;28;20242;-76
2023/08/02 10:00:10;;;;;;;0.10;0.10;;;17.40;99.90;;;;;;5059904;28;20732;-75
2023/08/02 10:02:36;;;;;;;0.10;0.10;;;17.40;99.90;;;;;;5076878;28;20193;-75
2023/08/02 10:05:04;;;;;;;0.22;0.22;;;17.40;99.90;;;;;;5078104;28;20217;-75
2023/08/02 10:07:46;;;;;;;0.15;0.15;;;17.40;99.90;;;;;;5078586;28;20197;-75
2023/08/02 10:10:21;;;;;;;1.20;0.90;;;17.40;99.90;;;;;;5061456;28;20291;-74
2023/08/02 10:12:52;;;;;;;0.10;0.10;;;17.60;99.90;;;;;;5059569;28;20204;-74
2023/08/02 10:15:18;;;;;;;0.10;0.10;;;17.70;99.90;;;;;;5058055;28;20749;-74
2023/08/02 10:17:46;;;;;;;0.20;0.20;;;17.70;99.90;;;;;;5057712;28;20242;-75
2023/08/02 10:20:13;;;;;;;0.10;0.08;;;17.80;99.90;;;;;;5076292;28;20223;-75
2023/08/02 10:22:41;;;;;;;0.30;0.30;;;17.90;99.90;;;;;;5076704;28;20189;-75
2023/08/02 10:25:07;;;;;;;0.38;0.38;;;17.90;99.90;;;;;;5075566;28;20322;-76
2023/08/02 10:27:35;;;;;;;0.40;0.32;;;17.80;99.90;;;;;;5074010;28;20574;-75
2023/08/02 10:30:04;;;;;;;0.10;0.10;;;17.80;99.90;;;;;;5074891;28;20270;-75
2023/08/02 10:32:29;;;;;;;0.88;0.40;;;17.80;99.90;;;;;;5076317;28;20250;-75
2023/08/02 10:34:56;;;;;;;1.65;0.63;;;17.80;99.90;;;;;;5075665;28;20192;-75
2023/08/02 10:37:22;;;;;;;0.10;0.10;;;17.90;99.90;;;;;;5075998;28;20243;-75
2023/08/02 10:39:48;;;;;;;0.20;0.20;;;18.00;99.90;;;;;;5076282;28;20189;-75
2023/08/02 10:42:19;;;;;;;0.20;0.20;;;18.10;99.90;;;;;;5076570;28;20193;-75
2023/08/02 10:44:54;;;;;;;0.30;0.30;;;18.30;99.90;;;;;;5058852;28;20279;-75
2023/08/02 10:47:31;;;;;;;0.22;0.22;;;18.30;99.90;;;;;;5075893;28;20717;-74
2023/08/02 10:49:58;;;;;;;0.20;0.20;;;18.20;99.90;;;;;;5074557;28;20192;-74
2023/08/02 10:53:06;;;;;;;0.30;0.30;;;18.10;99.90;;;;;;5073311;28;20208;-75
2023/08/02 10:55:31;;;;;;;0.10;0.10;;;18.20;99.90;;;;;;5066708;28;20220;-76
2023/08/02 10:57:57;;;;;;;0.20;0.20;;;18.20;99.90;;;;;;5075111;28;20210;-75
2023/08/02 11:00:26;;;;;;;0.10;0.10;;;18.30;99.90;;;;;;5074766;28;20674;-75
2023/08/02 11:02:53;;;;;;;0.30;0.30;;;18.30;99.90;;;;;;5056829;28;20222;-75
2023/08/02 11:05:38;;;;;;;0.68;0.38;;;18.30;99.90;;;;;;5093293;28;20705;-75
2023/08/02 11:08:04;;;;;;;0.57;0.35;;;18.30;99.90;;;;;;5076619;28;20224;-76
2023/08/02 11:10:30;;;;;;;0.55;0.50;;;18.40;99.90;;;;;;5094726;28;20264;-75
2023/08/02 11:12:56;;;;;;;0.50;0.32;;;18.40;99.90;;;;;;5095343;28;20215;-75
2023/08/02 11:15:22;;;;;;;0.77;0.63;;;18.40;99.90;;;;;;5094166;28;20298;-75
2023/08/02 11:17:55;;;;;;;0.45;0.30;;;18.50;99.90;;;;;;5095206;28;20204;-75
2023/08/02 11:20:26;;;;;;;0.70;0.50;;;18.50;99.90;;;;;;5095197;28;20189;-75
2023/08/02 11:22:53;;;;;;;0.45;0.35;;;18.50;99.90;;;;;;5094864;28;20192;-75
2023/08/02 11:25:20;;;;;;;0.30;0.30;;;18.50;99.90;;;;;;5098152;28;20605;-75
2023/08/02 11:27:46;;;;;;;0.52;0.47;;;18.50;99.90;;;;;;5099031;28;20259;-76
2023/08/02 11:30:12;;;;;;;0.30;0.30;;;18.50;99.90;;;;;;5098978;28;20230;-76
2023/08/02 11:32:45;;;;;;;1.00;0.85;;;18.50;99.90;;;;;;5098546;28;20577;-75
2023/08/02 11:35:18;;;;;;;0.28;0.28;;;18.50;99.90;;;;;;5098535;28;20275;-75
2023/08/02 11:37:44;;;;;;;0.40;0.40;;;18.40;99.90;;;;;;5080360;28;20223;-75
2023/08/02 11:40:11;;;;;;;0.57;0.40;;;18.50;99.90;;;;;;5099138;28;20229;-75
2023/08/02 11:42:48;;;;;;;0.60;0.60;;;18.60;99.90;;;;;;5099374;28;20184;-75
2023/08/02 11:45:26;;;;;;;0.32;0.32;;;18.80;99.90;;;;;;5098879;28;20207;-75
2023/08/02 11:47:52;;;;;;;0.20;0.20;;;18.90;99.90;;;;;;5098779;28;20211;-75
2023/08/02 11:50:24;;;;;;;0.35;0.35;;;18.90;99.90;;;;;;5096849;28;20200;-71
2023/08/02 11:52:50;;;;;;;0.30;0.30;;;19.00;99.90;;;;;;5096134;28;20192;-70
2023/08/02 11:55:17;;;;;;;0.45;0.45;;;19.10;99.90;;;;;;5096109;28;20337;-70
2023/08/02 11:57:43;;;;;;;1.02;0.75;;;19.20;99.90;;;;;;5095939;28;20666;-69
2023/08/02 12:00:09;;;;;;;0.40;0.40;;;19.10;99.90;;;;;;5096075;28;20556;-70
2023/08/02 12:02:35;;;;;;;0.40;0.40;;;19.10;99.90;;;;;;5095412;28;20226;-70
2023/08/02 12:05:08;;;;;;;0.50;0.50;;;19.10;99.90;;;;;;5095153;28;20239;-70
2023/08/02 12:07:36;;;;;;;0.40;0.40;;;18.90;99.90;;;;;;5077426;28;20206;-70
2023/08/02 12:10:06;;;;;;;0.40;0.40;;;18.80;99.90;;;;;;5095852;28;20204;-70
2023/08/02 12:12:33;;;;;;;0.30;0.30;;;18.70;99.90;;;;;;5095710;28;20200;-70
2023/08/02 12:15:08;;;;;;;2.72;0.40;;;18.60;99.90;;;;;;5073719;28;20674;-72
2023/08/02 12:17:34;;;;;;;0.30;0.30;;;18.50;99.90;;;;;;5074977;28;20210;-70
2023/08/02 12:20:00;;;;;;;1.92;1.08;;;18.40;99.90;;;;;;5075290;28;20255;-71
2023/08/02 12:22:26;;;;;;;0.55;0.55;;;18.40;99.90;;;;;;5075462;28;20279;-69
2023/08/02 12:25:07;;;;;;;0.30;0.30;;;18.60;99.90;;;;;;5057564;28;20193;-72
2023/08/02 12:27:33;;;;;;;0.28;0.28;;;18.80;99.90;;;;;;5084764;28;20183;-72
2023/08/02 12:30:16;;;;;;;0.28;0.28;;;18.90;99.90;;;;;;5095413;28;20188;-75
2023/08/02 12:32:42;;;;;;;0.40;0.40;;;19.10;99.90;;;;;;5077056;28;20672;-70
2023/08/02 12:35:09;;;;;;;0.52;0.43;;;19.20;99.90;;;;;;5095104;28;20568;-70
2023/08/02 12:37:35;;;;;;;0.65;0.65;;;19.30;99.90;;;;;;5076970;28;20200;-69
2023/08/02 12:40:02;;;;;;;0.40;0.40;;;19.40;99.90;;;;;;5077322;28;20196;-73
2023/08/02 12:42:28;;;;;;;0.40;0.40;;;19.40;99.90;;;;;;5095157;28;20283;-72
2023/08/02 12:44:54;;;;;;;0.40;0.40;;;19.50;99.90;;;;;;5076796;28;20729;-72
2023/08/02 12:47:20;;;;;;;0.40;0.40;;;19.80;99.90;;;;;;5094844;28;20279;-72